sensor_id;sensor_type;location;lat;lon;timestamp;P1;durP1;ratioP1;P2;durP2;ratioP2
42714;SDS011;28351;51.480;5.706;2022-10-22T00:01:49;13.50;;;7.35;;
42714;SDS011;28351;51.480;5.706;2022-10-22T00:04:14;15.07;;;7.00;;
42714;SDS011;28351;51.480;5.706;2022-10-22T00:06:40;12.55;;;7.07;;
42714;SDS011;28351;51.480;5.706;2022-10-22T00:09:08;11.13;;;7.25;;
42714;SDS011;28351;51.480;5.706;2022-10-22T00:11:35;10.65;;;6.32;;
42714;SDS011;28351;51.480;5.706;2022-10-22T00:14:01;16.85;;;7.38;;
42714;SDS011;28351;51.480;5.706;2022-10-22T00:16:29;22.33;;;8.27;;
42714;SDS011;28351;51.480;5.706;2022-10-22T00:18:55;13.23;;;7.20;;
42714;SDS011;28351;51.480;5.706;2022-10-22T00:21:20;11.05;;;7.15;;
42714;SDS011;28351;51.480;5.706;2022-10-22T00:23:46;14.02;;;7.55;;
42714;SDS011;28351;51.480;5.706;2022-10-22T00:26:12;12.30;;;7.25;;
42714;SDS011;28351;51.480;5.706;2022-10-22T00:28:37;13.80;;;7.65;;
42714;SDS011;28351;51.480;5.706;2022-10-22T00:31:03;12.77;;;7.07;;
42714;SDS011;28351;51.480;5.706;2022-10-22T00:33:30;14.23;;;7.32;;
42714;SDS011;28351;51.480;5.706;2022-10-22T00:35:56;12.50;;;6.93;;
42714;SDS011;28351;51.480;5.706;2022-10-22T00:38:22;13.48;;;7.40;;
42714;SDS011;28351;51.480;5.706;2022-10-22T00:40:50;13.40;;;7.60;;
42714;SDS011;28351;51.480;5.706;2022-10-22T00:43:17;9.77;;;6.57;;
42714;SDS011;28351;51.480;5.706;2022-10-22T00:45:43;12.55;;;7.60;;
42714;SDS011;28351;51.480;5.706;2022-10-22T00:48:22;10.57;;;7.25;;
42714;SDS011;28351;51.480;5.706;2022-10-22T00:50:58;11.98;;;6.80;;
42714;SDS011;28351;51.480;5.706;2022-10-22T00:56:17;23.27;;;7.70;;
42714;SDS011;28351;51.480;5.706;2022-10-22T00:58:46;14.77;;;7.85;;
42714;SDS011;28351;51.480;5.706;2022-10-22T01:01:17;12.68;;;7.78;;
42714;SDS011;28351;51.480;5.706;2022-10-22T01:03:45;13.32;;;7.70;;
42714;SDS011;28351;51.480;5.706;2022-10-22T01:06:14;14.35;;;7.90;;
42714;SDS011;28351;51.480;5.706;2022-10-22T01:11:38;13.82;;;7.45;;
42714;SDS011;28351;51.480;5.706;2022-10-22T01:14:23;15.65;;;8.18;;
42714;SDS011;28351;51.480;5.706;2022-10-22T01:17:31;14.75;;;7.55;;
42714;SDS011;28351;51.480;5.706;2022-10-22T01:20:16;15.35;;;7.53;;
42714;SDS011;28351;51.480;5.706;2022-10-22T01:31:12;18.70;;;8.20;;
42714;SDS011;28351;51.480;5.706;2022-10-22T01:33:40;11.98;;;7.65;;
42714;SDS011;28351;51.480;5.706;2022-10-22T01:36:08;13.10;;;7.60;;
42714;SDS011;28351;51.480;5.706;2022-10-22T01:38:39;15.15;;;7.22;;
42714;SDS011;28351;51.480;5.706;2022-10-22T01:41:06;12.88;;;7.25;;
42714;SDS011;28351;51.480;5.706;2022-10-22T01:43:32;12.60;;;7.55;;
42714;SDS011;28351;51.480;5.706;2022-10-22T01:45:59;12.52;;;7.45;;
42714;SDS011;28351;51.480;5.706;2022-10-22T02:04:57;11.77;;;7.30;;
42714;SDS011;28351;51.480;5.706;2022-10-22T02:07:31;14.63;;;7.60;;
42714;SDS011;28351;51.480;5.706;2022-10-22T02:10:02;15.57;;;7.95;;
42714;SDS011;28351;51.480;5.706;2022-10-22T02:12:31;14.82;;;7.57;;
42714;SDS011;28351;51.480;5.706;2022-10-22T02:14:59;11.23;;;7.05;;
42714;SDS011;28351;51.480;5.706;2022-10-22T02:17:27;11.07;;;7.57;;
42714;SDS011;28351;51.480;5.706;2022-10-22T02:19:58;20.10;;;7.78;;
42714;SDS011;28351;51.480;5.706;2022-10-22T02:22:27;14.90;;;7.45;;
42714;SDS011;28351;51.480;5.706;2022-10-22T02:24:53;15.45;;;7.25;;
42714;SDS011;28351;51.480;5.706;2022-10-22T02:27:29;14.25;;;7.10;;
42714;SDS011;28351;51.480;5.706;2022-10-22T02:30:18;12.23;;;6.70;;
42714;SDS011;28351;51.480;5.706;2022-10-22T02:32:50;13.85;;;6.82;;
42714;SDS011;28351;51.480;5.706;2022-10-22T02:35:22;13.00;;;7.00;;
42714;SDS011;28351;51.480;5.706;2022-10-22T02:40:17;12.77;;;6.82;;
42714;SDS011;28351;51.480;5.706;2022-10-22T02:42:45;14.57;;;7.15;;
42714;SDS011;28351;51.480;5.706;2022-10-22T02:47:38;12.65;;;7.07;;
42714;SDS011;28351;51.480;5.706;2022-10-22T02:50:03;17.38;;;7.38;;
42714;SDS011;28351;51.480;5.706;2022-10-22T02:52:30;13.38;;;6.60;;
42714;SDS011;28351;51.480;5.706;2022-10-22T02:54:55;18.90;;;7.13;;
42714;SDS011;28351;51.480;5.706;2022-10-22T02:57:21;14.25;;;7.63;;
42714;SDS011;28351;51.480;5.706;2022-10-22T02:59:46;13.93;;;7.22;;
42714;SDS011;28351;51.480;5.706;2022-10-22T03:02:12;11.27;;;7.03;;
42714;SDS011;28351;51.480;5.706;2022-10-22T03:04:37;14.38;;;6.70;;
42714;SDS011;28351;51.480;5.706;2022-10-22T03:07:03;14.18;;;6.57;;
42714;SDS011;28351;51.480;5.706;2022-10-22T03:09:29;13.82;;;7.28;;
42714;SDS011;28351;51.480;5.706;2022-10-22T03:11:54;10.70;;;6.40;;
42714;SDS011;28351;51.480;5.706;2022-10-22T03:14:20;14.23;;;7.55;;
42714;SDS011;28351;51.480;5.706;2022-10-22T03:16:45;11.88;;;6.85;;
42714;SDS011;28351;51.480;5.706;2022-10-22T03:19:11;12.02;;;6.38;;
42714;SDS011;28351;51.480;5.706;2022-10-22T03:21:38;15.70;;;7.90;;
42714;SDS011;28351;51.480;5.706;2022-10-22T03:24:18;13.35;;;6.90;;
42714;SDS011;28351;51.480;5.706;2022-10-22T03:26:47;16.48;;;7.55;;
42714;SDS011;28351;51.480;5.706;2022-10-22T03:29:16;14.02;;;7.07;;
42714;SDS011;28351;51.480;5.706;2022-10-22T03:31:43;12.20;;;7.57;;
42714;SDS011;28351;51.480;5.706;2022-10-22T03:34:08;14.50;;;7.78;;
42714;SDS011;28351;51.480;5.706;2022-10-22T03:36:36;16.20;;;7.97;;
42714;SDS011;28351;51.480;5.706;2022-10-22T03:39:02;17.75;;;7.47;;
42714;SDS011;28351;51.480;5.706;2022-10-22T03:41:29;17.17;;;7.78;;
42714;SDS011;28351;51.480;5.706;2022-10-22T03:43:55;15.35;;;7.70;;
42714;SDS011;28351;51.480;5.706;2022-10-22T03:46:21;13.55;;;8.00;;
42714;SDS011;28351;51.480;5.706;2022-10-22T03:48:47;13.93;;;8.52;;
42714;SDS011;28351;51.480;5.706;2022-10-22T03:51:13;13.68;;;7.63;;
42714;SDS011;28351;51.480;5.706;2022-10-22T03:53:38;14.88;;;8.35;;
42714;SDS011;28351;51.480;5.706;2022-10-22T03:56:08;14.85;;;7.43;;
42714;SDS011;28351;51.480;5.706;2022-10-22T03:58:35;12.65;;;7.50;;
42714;SDS011;28351;51.480;5.706;2022-10-22T04:01:04;20.67;;;8.45;;
42714;SDS011;28351;51.480;5.706;2022-10-22T04:03:31;18.35;;;7.85;;
42714;SDS011;28351;51.480;5.706;2022-10-22T04:06:07;16.13;;;8.27;;
42714;SDS011;28351;51.480;5.706;2022-10-22T04:08:35;17.00;;;7.83;;
42714;SDS011;28351;51.480;5.706;2022-10-22T04:11:03;15.77;;;8.35;;
42714;SDS011;28351;51.480;5.706;2022-10-22T04:13:32;15.70;;;7.45;;
42714;SDS011;28351;51.480;5.706;2022-10-22T04:16:08;14.45;;;6.93;;
42714;SDS011;28351;51.480;5.706;2022-10-22T04:18:47;14.60;;;7.15;;
42714;SDS011;28351;51.480;5.706;2022-10-22T04:21:23;13.13;;;7.45;;
42714;SDS011;28351;51.480;5.706;2022-10-22T04:23:52;17.48;;;7.38;;
42714;SDS011;28351;51.480;5.706;2022-10-22T04:26:18;14.57;;;6.65;;
42714;SDS011;28351;51.480;5.706;2022-10-22T04:28:44;13.95;;;7.70;;
42714;SDS011;28351;51.480;5.706;2022-10-22T04:31:13;13.88;;;7.75;;
42714;SDS011;28351;51.480;5.706;2022-10-22T04:33:39;11.93;;;7.35;;
42714;SDS011;28351;51.480;5.706;2022-10-22T04:36:08;12.38;;;6.22;;
42714;SDS011;28351;51.480;5.706;2022-10-22T04:38:36;17.75;;;6.72;;
42714;SDS011;28351;51.480;5.706;2022-10-22T04:41:10;16.65;;;8.00;;
42714;SDS011;28351;51.480;5.706;2022-10-22T04:43:37;14.82;;;7.70;;
42714;SDS011;28351;51.480;5.706;2022-10-22T04:46:03;14.27;;;7.07;;
42714;SDS011;28351;51.480;5.706;2022-10-22T04:48:29;11.57;;;6.05;;
42714;SDS011;28351;51.480;5.706;2022-10-22T04:50:55;15.13;;;7.18;;
42714;SDS011;28351;51.480;5.706;2022-10-22T04:53:24;17.05;;;7.05;;
42714;SDS011;28351;51.480;5.706;2022-10-22T04:55:50;15.32;;;6.53;;
42714;SDS011;28351;51.480;5.706;2022-10-22T04:58:16;14.07;;;7.28;;
42714;SDS011;28351;51.480;5.706;2022-10-22T05:00:41;14.90;;;7.43;;
42714;SDS011;28351;51.480;5.706;2022-10-22T05:03:07;15.15;;;6.90;;
42714;SDS011;28351;51.480;5.706;2022-10-22T05:05:32;12.88;;;7.07;;
42714;SDS011;28351;51.480;5.706;2022-10-22T05:07:58;12.57;;;6.68;;
42714;SDS011;28351;51.480;5.706;2022-10-22T05:10:24;12.13;;;6.97;;
42714;SDS011;28351;51.480;5.706;2022-10-22T05:12:49;13.88;;;7.43;;
42714;SDS011;28351;51.480;5.706;2022-10-22T05:15:18;12.60;;;6.72;;
42714;SDS011;28351;51.480;5.706;2022-10-22T05:20:09;13.48;;;6.53;;
42714;SDS011;28351;51.480;5.706;2022-10-22T05:22:35;17.77;;;7.72;;
42714;SDS011;28351;51.480;5.706;2022-10-22T05:25:00;13.32;;;7.05;;
42714;SDS011;28351;51.480;5.706;2022-10-22T05:27:26;16.92;;;6.65;;
42714;SDS011;28351;51.480;5.706;2022-10-22T05:29:51;12.00;;;6.63;;
42714;SDS011;28351;51.480;5.706;2022-10-22T05:32:17;14.10;;;6.72;;
42714;SDS011;28351;51.480;5.706;2022-10-22T05:34:43;16.50;;;6.68;;
42714;SDS011;28351;51.480;5.706;2022-10-22T05:37:08;13.77;;;6.72;;
42714;SDS011;28351;51.480;5.706;2022-10-22T05:39:34;13.13;;;7.18;;
42714;SDS011;28351;51.480;5.706;2022-10-22T05:42:01;11.43;;;6.88;;
42714;SDS011;28351;51.480;5.706;2022-10-22T05:44:27;15.55;;;6.97;;
42714;SDS011;28351;51.480;5.706;2022-10-22T05:46:52;14.07;;;7.15;;
42714;SDS011;28351;51.480;5.706;2022-10-22T05:49:18;14.02;;;6.82;;
42714;SDS011;28351;51.480;5.706;2022-10-22T05:51:44;16.08;;;7.68;;
42714;SDS011;28351;51.480;5.706;2022-10-22T05:54:14;62.30;;;12.77;;
42714;SDS011;28351;51.480;5.706;2022-10-22T05:56:44;65.63;;;15.48;;
42714;SDS011;28351;51.480;5.706;2022-10-22T05:59:10;57.65;;;12.48;;
42714;SDS011;28351;51.480;5.706;2022-10-22T06:01:37;42.15;;;9.70;;
42714;SDS011;28351;51.480;5.706;2022-10-22T06:04:04;50.03;;;11.15;;
42714;SDS011;28351;51.480;5.706;2022-10-22T06:06:33;59.63;;;13.13;;
42714;SDS011;28351;51.480;5.706;2022-10-22T06:11:45;40.20;;;9.60;;
42714;SDS011;28351;51.480;5.706;2022-10-22T06:14:11;15.63;;;7.05;;
42714;SDS011;28351;51.480;5.706;2022-10-22T06:16:37;23.45;;;7.53;;
42714;SDS011;28351;51.480;5.706;2022-10-22T06:19:02;18.75;;;7.43;;
42714;SDS011;28351;51.480;5.706;2022-10-22T06:21:29;17.30;;;6.47;;
42714;SDS011;28351;51.480;5.706;2022-10-22T06:23:55;53.15;;;12.40;;
42714;SDS011;28351;51.480;5.706;2022-10-22T06:26:22;438.00;;;62.70;;
42714;SDS011;28351;51.480;5.706;2022-10-22T06:28:47;662.05;;;113.95;;
42714;SDS011;28351;51.480;5.706;2022-10-22T06:31:13;342.55;;;50.72;;
42714;SDS011;28351;51.480;5.706;2022-10-22T06:33:39;361.55;;;53.05;;
42714;SDS011;28351;51.480;5.706;2022-10-22T06:36:09;584.83;;;90.70;;
42714;SDS011;28351;51.480;5.706;2022-10-22T06:38:36;168.25;;;24.15;;
42714;SDS011;28351;51.480;5.706;2022-10-22T06:41:03;476.85;;;66.95;;
42714;SDS011;28351;51.480;5.706;2022-10-22T06:43:39;248.90;;;36.33;;
42714;SDS011;28351;51.480;5.706;2022-10-22T06:46:07;426.10;;;59.55;;
42714;SDS011;28351;51.480;5.706;2022-10-22T06:48:37;295.33;;;43.45;;
42714;SDS011;28351;51.480;5.706;2022-10-22T06:51:04;125.70;;;21.17;;
42714;SDS011;28351;51.480;5.706;2022-10-22T06:53:31;239.15;;;31.45;;
42714;SDS011;28351;51.480;5.706;2022-10-22T06:55:57;194.68;;;25.73;;
42714;SDS011;28351;51.480;5.706;2022-10-22T06:58:23;125.07;;;18.45;;
42714;SDS011;28351;51.480;5.706;2022-10-22T07:00:48;78.72;;;15.23;;
42714;SDS011;28351;51.480;5.706;2022-10-22T07:03:14;51.13;;;9.40;;
42714;SDS011;28351;51.480;5.706;2022-10-22T07:05:42;27.83;;;6.93;;
42714;SDS011;28351;51.480;5.706;2022-10-22T07:08:08;17.55;;;4.75;;
42714;SDS011;28351;51.480;5.706;2022-10-22T07:10:33;14.77;;;4.70;;
42714;SDS011;28351;51.480;5.706;2022-10-22T07:12:59;11.80;;;4.43;;
42714;SDS011;28351;51.480;5.706;2022-10-22T07:15:25;13.88;;;4.18;;
42714;SDS011;28351;51.480;5.706;2022-10-22T07:17:50;14.45;;;4.82;;
42714;SDS011;28351;51.480;5.706;2022-10-22T07:20:16;14.55;;;4.25;;
42714;SDS011;28351;51.480;5.706;2022-10-22T07:22:43;12.75;;;4.00;;
42714;SDS011;28351;51.480;5.706;2022-10-22T07:25:09;14.05;;;3.67;;
42714;SDS011;28351;51.480;5.706;2022-10-22T07:27:35;9.93;;;4.07;;
42714;SDS011;28351;51.480;5.706;2022-10-22T07:30:00;15.98;;;3.70;;
42714;SDS011;28351;51.480;5.706;2022-10-22T07:32:26;11.32;;;4.05;;
42714;SDS011;28351;51.480;5.706;2022-10-22T07:34:52;6.35;;;3.55;;
42714;SDS011;28351;51.480;5.706;2022-10-22T07:37:17;256.02;;;36.60;;
42714;SDS011;28351;51.480;5.706;2022-10-22T07:39:46;85.45;;;15.45;;
42714;SDS011;28351;51.480;5.706;2022-10-22T07:44:40;20.05;;;3.67;;
42714;SDS011;28351;51.480;5.706;2022-10-22T07:47:05;11.80;;;3.50;;
42714;SDS011;28351;51.480;5.706;2022-10-22T07:49:31;9.90;;;3.38;;
42714;SDS011;28351;51.480;5.706;2022-10-22T07:51:57;6.90;;;2.78;;
42714;SDS011;28351;51.480;5.706;2022-10-22T07:54:22;37.13;;;6.65;;
42714;SDS011;28351;51.480;5.706;2022-10-22T07:56:48;36.95;;;6.70;;
42714;SDS011;28351;51.480;5.706;2022-10-22T07:59:14;11.40;;;3.03;;
42714;SDS011;28351;51.480;5.706;2022-10-22T08:01:39;8.98;;;3.00;;
42714;SDS011;28351;51.480;5.706;2022-10-22T08:04:05;9.60;;;2.33;;
42714;SDS011;28351;51.480;5.706;2022-10-22T08:06:35;82.20;;;10.73;;
42714;SDS011;28351;51.480;5.706;2022-10-22T08:09:01;49.97;;;9.20;;
42714;SDS011;28351;51.480;5.706;2022-10-22T08:11:26;37.20;;;7.38;;
42714;SDS011;28351;51.480;5.706;2022-10-22T08:13:52;76.85;;;11.55;;
42714;SDS011;28351;51.480;5.706;2022-10-22T08:16:18;95.63;;;13.52;;
42714;SDS011;28351;51.480;5.706;2022-10-22T08:18:43;208.38;;;26.73;;
42714;SDS011;28351;51.480;5.706;2022-10-22T08:21:12;74.55;;;11.38;;
42714;SDS011;28351;51.480;5.706;2022-10-22T08:23:38;42.83;;;6.93;;
42714;SDS011;28351;51.480;5.706;2022-10-22T08:26:04;27.17;;;5.22;;
42714;SDS011;28351;51.480;5.706;2022-10-22T08:28:29;16.40;;;3.70;;
42714;SDS011;28351;51.480;5.706;2022-10-22T08:30:59;8.48;;;2.00;;
42714;SDS011;28351;51.480;5.706;2022-10-22T08:33:25;25.63;;;3.60;;
42714;SDS011;28351;51.480;5.706;2022-10-22T08:35:51;6.00;;;1.95;;
42714;SDS011;28351;51.480;5.706;2022-10-22T08:38:16;7.32;;;3.10;;
42714;SDS011;28351;51.480;5.706;2022-10-22T08:40:43;4.50;;;2.15;;
42714;SDS011;28351;51.480;5.706;2022-10-22T08:45:57;16.15;;;3.35;;
42714;SDS011;28351;51.480;5.706;2022-10-22T08:51:15;9.85;;;2.05;;
42714;SDS011;28351;51.480;5.706;2022-10-22T08:56:30;3.95;;;1.67;;
42714;SDS011;28351;51.480;5.706;2022-10-22T08:59:01;9.95;;;1.90;;
42714;SDS011;28351;51.480;5.706;2022-10-22T09:01:46;8.35;;;1.95;;
42714;SDS011;28351;51.480;5.706;2022-10-22T09:04:21;4.28;;;1.92;;
42714;SDS011;28351;51.480;5.706;2022-10-22T09:06:51;5.70;;;1.92;;
42714;SDS011;28351;51.480;5.706;2022-10-22T09:09:19;6.03;;;2.27;;
42714;SDS011;28351;51.480;5.706;2022-10-22T09:11:46;10.32;;;2.28;;
42714;SDS011;28351;51.480;5.706;2022-10-22T09:14:17;7.78;;;1.58;;
42714;SDS011;28351;51.480;5.706;2022-10-22T09:22:36;3.90;;;1.38;;
42714;SDS011;28351;51.480;5.706;2022-10-22T09:27:54;5.70;;;1.40;;
42714;SDS011;28351;51.480;5.706;2022-10-22T09:30:26;10.32;;;1.60;;
42714;SDS011;28351;51.480;5.706;2022-10-22T09:32:59;7.00;;;1.75;;
42714;SDS011;28351;51.480;5.706;2022-10-22T09:35:34;6.70;;;1.65;;
42714;SDS011;28351;51.480;5.706;2022-10-22T09:40:44;6.60;;;1.90;;
42714;SDS011;28351;51.480;5.706;2022-10-22T09:43:13;150.02;;;20.33;;
42714;SDS011;28351;51.480;5.706;2022-10-22T09:45:39;7.85;;;1.80;;
42714;SDS011;28351;51.480;5.706;2022-10-22T09:48:21;14.88;;;4.00;;
42714;SDS011;28351;51.480;5.706;2022-10-22T09:50:55;11.40;;;1.70;;
42714;SDS011;28351;51.480;5.706;2022-10-22T09:53:30;7.65;;;1.65;;
42714;SDS011;28351;51.480;5.706;2022-10-22T09:56:25;4.95;;;1.50;;
42714;SDS011;28351;51.480;5.706;2022-10-22T09:58:51;176.27;;;26.02;;
42714;SDS011;28351;51.480;5.706;2022-10-22T10:01:18;127.88;;;16.42;;
42714;SDS011;28351;51.480;5.706;2022-10-22T10:03:47;41.05;;;7.93;;
42714;SDS011;28351;51.480;5.706;2022-10-22T10:06:16;58.85;;;7.78;;
42714;SDS011;28351;51.480;5.706;2022-10-22T10:08:47;38.05;;;6.18;;
42714;SDS011;28351;51.480;5.706;2022-10-22T10:11:34;28.65;;;4.13;;
42714;SDS011;28351;51.480;5.706;2022-10-22T10:19:36;11.00;;;2.65;;
42714;SDS011;28351;51.480;5.706;2022-10-22T10:24:59;63.13;;;9.73;;
42714;SDS011;28351;51.480;5.706;2022-10-22T10:28:49;10.57;;;1.92;;
42714;SDS011;28351;51.480;5.706;2022-10-22T10:31:06;3.97;;;1.30;;
42714;SDS011;28351;51.480;5.706;2022-10-22T10:34:04;4.85;;;1.67;;
42714;SDS011;28351;51.480;5.706;2022-10-22T10:37:35;3.85;;;1.60;;
42714;SDS011;28351;51.480;5.706;2022-10-22T10:40:23;9.23;;;1.83;;
42714;SDS011;28351;51.480;5.706;2022-10-22T10:48:41;4.85;;;1.15;;
42714;SDS011;28351;51.480;5.706;2022-10-22T10:51:37;5.65;;;1.27;;
42714;SDS011;28351;51.480;5.706;2022-10-22T10:57:08;6.07;;;1.70;;
42714;SDS011;28351;51.480;5.706;2022-10-22T11:00:09;6.00;;;1.42;;
42714;SDS011;28351;51.480;5.706;2022-10-22T11:02:46;7.70;;;1.38;;
42714;SDS011;28351;51.480;5.706;2022-10-22T11:08:06;5.15;;;1.45;;
42714;SDS011;28351;51.480;5.706;2022-10-22T11:10:48;4.85;;;1.30;;
42714;SDS011;28351;51.480;5.706;2022-10-22T11:16:20;5.50;;;1.63;;
42714;SDS011;28351;51.480;5.706;2022-10-22T11:19:02;6.72;;;1.30;;
42714;SDS011;28351;51.480;5.706;2022-10-22T11:29:11;5.15;;;1.40;;
42714;SDS011;28351;51.480;5.706;2022-10-22T11:31:52;7.78;;;1.35;;
42714;SDS011;28351;51.480;5.706;2022-10-22T11:34:21;7.97;;;2.10;;
42714;SDS011;28351;51.480;5.706;2022-10-22T11:36:55;17.65;;;3.75;;
42714;SDS011;28351;51.480;5.706;2022-10-22T11:42:49;16.23;;;2.10;;
42714;SDS011;28351;51.480;5.706;2022-10-22T11:50:45;25.92;;;4.50;;
42714;SDS011;28351;51.480;5.706;2022-10-22T11:55:49;9.88;;;1.45;;
42714;SDS011;28351;51.480;5.706;2022-10-22T12:00:52;6.05;;;1.23;;
42714;SDS011;28351;51.480;5.706;2022-10-22T12:16:22;3.30;;;1.00;;
42714;SDS011;28351;51.480;5.706;2022-10-22T12:18:52;8.40;;;1.50;;
42714;SDS011;28351;51.480;5.706;2022-10-22T12:21:22;7.85;;;1.80;;
42714;SDS011;28351;51.480;5.706;2022-10-22T12:23:48;3.35;;;1.30;;
42714;SDS011;28351;51.480;5.706;2022-10-22T12:26:22;5.82;;;1.20;;
42714;SDS011;28351;51.480;5.706;2022-10-22T12:28:50;4.10;;;1.40;;
42714;SDS011;28351;51.480;5.706;2022-10-22T12:31:21;5.72;;;1.27;;
42714;SDS011;28351;51.480;5.706;2022-10-22T12:33:47;4.28;;;1.60;;
42714;SDS011;28351;51.480;5.706;2022-10-22T12:36:19;4.68;;;1.35;;
42714;SDS011;28351;51.480;5.706;2022-10-22T12:38:45;6.18;;;1.38;;
42714;SDS011;28351;51.480;5.706;2022-10-22T12:41:21;5.68;;;1.40;;
42714;SDS011;28351;51.480;5.706;2022-10-22T12:43:58;5.30;;;1.10;;
42714;SDS011;28351;51.480;5.706;2022-10-22T12:46:25;4.97;;;1.27;;
42714;SDS011;28351;51.480;5.706;2022-10-22T12:48:52;7.13;;;1.70;;
42714;SDS011;28351;51.480;5.706;2022-10-22T12:51:19;7.53;;;1.65;;
42714;SDS011;28351;51.480;5.706;2022-10-22T12:53:49;6.40;;;1.67;;
42714;SDS011;28351;51.480;5.706;2022-10-22T12:56:27;5.25;;;1.35;;
42714;SDS011;28351;51.480;5.706;2022-10-22T12:59:00;4.85;;;1.42;;
42714;SDS011;28351;51.480;5.706;2022-10-22T13:01:38;6.53;;;1.58;;
42714;SDS011;28351;51.480;5.706;2022-10-22T13:09:56;6.53;;;1.50;;
42714;SDS011;28351;51.480;5.706;2022-10-22T13:12:27;10.93;;;1.70;;
42714;SDS011;28351;51.480;5.706;2022-10-22T13:15:16;5.15;;;1.30;;
42714;SDS011;28351;51.480;5.706;2022-10-22T13:17:47;4.88;;;1.42;;
42714;SDS011;28351;51.480;5.706;2022-10-22T13:22:59;5.07;;;0.85;;
42714;SDS011;28351;51.480;5.706;2022-10-22T13:25:36;5.88;;;1.10;;
42714;SDS011;28351;51.480;5.706;2022-10-22T13:28:14;3.70;;;1.30;;
42714;SDS011;28351;51.480;5.706;2022-10-22T13:30:51;3.65;;;0.82;;
42714;SDS011;28351;51.480;5.706;2022-10-22T13:33:21;6.72;;;1.10;;
42714;SDS011;28351;51.480;5.706;2022-10-22T13:35:54;3.50;;;1.20;;
42714;SDS011;28351;51.480;5.706;2022-10-22T13:38:21;3.67;;;0.90;;
42714;SDS011;28351;51.480;5.706;2022-10-22T13:40:48;4.25;;;1.00;;
42714;SDS011;28351;51.480;5.706;2022-10-22T13:43:14;4.05;;;1.00;;
42714;SDS011;28351;51.480;5.706;2022-10-22T13:45:41;4.30;;;1.13;;
42714;SDS011;28351;51.480;5.706;2022-10-22T13:48:09;4.07;;;0.98;;
42714;SDS011;28351;51.480;5.706;2022-10-22T13:50:46;5.93;;;1.23;;
42714;SDS011;28351;51.480;5.706;2022-10-22T13:53:16;5.75;;;1.30;;
42714;SDS011;28351;51.480;5.706;2022-10-22T13:55:44;6.55;;;1.20;;
42714;SDS011;28351;51.480;5.706;2022-10-22T13:58:11;5.22;;;1.35;;
42714;SDS011;28351;51.480;5.706;2022-10-22T14:00:38;5.07;;;1.40;;
42714;SDS011;28351;51.480;5.706;2022-10-22T14:03:10;4.25;;;1.00;;
42714;SDS011;28351;51.480;5.706;2022-10-22T14:05:38;4.13;;;1.00;;
42714;SDS011;28351;51.480;5.706;2022-10-22T14:08:07;7.82;;;1.40;;
42714;SDS011;28351;51.480;5.706;2022-10-22T14:10:38;8.90;;;1.17;;
42714;SDS011;28351;51.480;5.706;2022-10-22T14:13:08;4.97;;;1.00;;
42714;SDS011;28351;51.480;5.706;2022-10-22T14:15:34;6.25;;;1.45;;
42714;SDS011;28351;51.480;5.706;2022-10-22T14:18:05;10.88;;;1.65;;
42714;SDS011;28351;51.480;5.706;2022-10-22T14:20:33;7.25;;;1.73;;
42714;SDS011;28351;51.480;5.706;2022-10-22T14:25:29;6.35;;;1.88;;
42714;SDS011;28351;51.480;5.706;2022-10-22T14:30:24;4.47;;;1.45;;
42714;SDS011;28351;51.480;5.706;2022-10-22T14:32:50;6.03;;;1.17;;
42714;SDS011;28351;51.480;5.706;2022-10-22T14:35:17;4.03;;;1.30;;
42714;SDS011;28351;51.480;5.706;2022-10-22T14:37:45;3.78;;;1.58;;
42714;SDS011;28351;51.480;5.706;2022-10-22T14:40:12;6.85;;;1.60;;
42714;SDS011;28351;51.480;5.706;2022-10-22T14:42:45;5.97;;;1.77;;
42714;SDS011;28351;51.480;5.706;2022-10-22T14:45:20;4.97;;;1.53;;
42714;SDS011;28351;51.480;5.706;2022-10-22T14:47:48;6.93;;;1.67;;
42714;SDS011;28351;51.480;5.706;2022-10-22T14:50:14;8.77;;;2.08;;
42714;SDS011;28351;51.480;5.706;2022-10-22T14:52:41;5.63;;;1.77;;
42714;SDS011;28351;51.480;5.706;2022-10-22T14:55:10;8.02;;;1.40;;
42714;SDS011;28351;51.480;5.706;2022-10-22T14:57:37;5.75;;;1.40;;
42714;SDS011;28351;51.480;5.706;2022-10-22T15:00:07;4.40;;;1.55;;
42714;SDS011;28351;51.480;5.706;2022-10-22T15:02:35;6.88;;;1.40;;
42714;SDS011;28351;51.480;5.706;2022-10-22T15:05:01;4.22;;;1.52;;
42714;SDS011;28351;51.480;5.706;2022-10-22T15:07:27;5.30;;;1.27;;
42714;SDS011;28351;51.480;5.706;2022-10-22T15:09:52;4.88;;;1.30;;
42714;SDS011;28351;51.480;5.706;2022-10-22T15:12:18;3.80;;;1.40;;
42714;SDS011;28351;51.480;5.706;2022-10-22T15:14:47;4.88;;;1.10;;
42714;SDS011;28351;51.480;5.706;2022-10-22T15:17:13;6.18;;;1.73;;
42714;SDS011;28351;51.480;5.706;2022-10-22T15:19:39;6.93;;;1.63;;
42714;SDS011;28351;51.480;5.706;2022-10-22T15:22:05;6.03;;;1.80;;
42714;SDS011;28351;51.480;5.706;2022-10-22T15:24:31;6.18;;;1.80;;
42714;SDS011;28351;51.480;5.706;2022-10-22T15:26:57;8.30;;;1.70;;
42714;SDS011;28351;51.480;5.706;2022-10-22T15:29:23;5.15;;;2.00;;
42714;SDS011;28351;51.480;5.706;2022-10-22T15:31:49;5.00;;;1.92;;
42714;SDS011;28351;51.480;5.706;2022-10-22T15:34:21;5.82;;;1.33;;
42714;SDS011;28351;51.480;5.706;2022-10-22T15:36:52;3.58;;;1.73;;
42714;SDS011;28351;51.480;5.706;2022-10-22T15:39:19;5.05;;;1.95;;
42714;SDS011;28351;51.480;5.706;2022-10-22T15:41:46;7.03;;;2.10;;
42714;SDS011;28351;51.480;5.706;2022-10-22T15:44:17;8.77;;;1.83;;
42714;SDS011;28351;51.480;5.706;2022-10-22T15:46:44;6.57;;;1.35;;
42714;SDS011;28351;51.480;5.706;2022-10-22T15:49:10;5.40;;;1.58;;
42714;SDS011;28351;51.480;5.706;2022-10-22T15:51:36;5.22;;;1.80;;
42714;SDS011;28351;51.480;5.706;2022-10-22T15:54:02;4.63;;;1.35;;
42714;SDS011;28351;51.480;5.706;2022-10-22T15:56:31;7.60;;;1.50;;
42714;SDS011;28351;51.480;5.706;2022-10-22T15:58:58;4.25;;;1.35;;
42714;SDS011;28351;51.480;5.706;2022-10-22T16:01:27;4.60;;;1.45;;
42714;SDS011;28351;51.480;5.706;2022-10-22T16:03:54;5.30;;;1.52;;
42714;SDS011;28351;51.480;5.706;2022-10-22T16:06:30;7.28;;;2.00;;
42714;SDS011;28351;51.480;5.706;2022-10-22T16:09:02;6.10;;;1.63;;
42714;SDS011;28351;51.480;5.706;2022-10-22T16:11:29;4.78;;;1.60;;
42714;SDS011;28351;51.480;5.706;2022-10-22T16:13:56;7.47;;;2.15;;
42714;SDS011;28351;51.480;5.706;2022-10-22T16:16:23;8.50;;;1.73;;
42714;SDS011;28351;51.480;5.706;2022-10-22T16:18:50;7.25;;;1.73;;
42714;SDS011;28351;51.480;5.706;2022-10-22T16:21:16;5.05;;;1.67;;
42714;SDS011;28351;51.480;5.706;2022-10-22T16:23:43;6.60;;;2.45;;
42714;SDS011;28351;51.480;5.706;2022-10-22T16:26:08;8.20;;;3.17;;
42714;SDS011;28351;51.480;5.706;2022-10-22T16:28:34;7.20;;;2.55;;
42714;SDS011;28351;51.480;5.706;2022-10-22T16:31:04;5.75;;;2.10;;
42714;SDS011;28351;51.480;5.706;2022-10-22T16:33:36;8.00;;;2.05;;
42714;SDS011;28351;51.480;5.706;2022-10-22T16:36:04;9.00;;;2.30;;
42714;SDS011;28351;51.480;5.706;2022-10-22T16:38:33;3.47;;;2.15;;
42714;SDS011;28351;51.480;5.706;2022-10-22T16:41:09;7.18;;;2.38;;
42714;SDS011;28351;51.480;5.706;2022-10-22T16:43:38;8.80;;;2.80;;
42714;SDS011;28351;51.480;5.706;2022-10-22T16:46:04;6.75;;;2.65;;
42714;SDS011;28351;51.480;5.706;2022-10-22T16:48:30;6.30;;;2.08;;
42714;SDS011;28351;51.480;5.706;2022-10-22T16:51:04;7.88;;;2.25;;
42714;SDS011;28351;51.480;5.706;2022-10-22T16:53:34;9.35;;;2.40;;
42714;SDS011;28351;51.480;5.706;2022-10-22T16:55:59;6.53;;;2.13;;
42714;SDS011;28351;51.480;5.706;2022-10-22T16:58:28;6.15;;;2.45;;
42714;SDS011;28351;51.480;5.706;2022-10-22T17:00:54;5.90;;;2.58;;
42714;SDS011;28351;51.480;5.706;2022-10-22T17:03:20;8.45;;;2.65;;
42714;SDS011;28351;51.480;5.706;2022-10-22T17:05:45;10.30;;;2.88;;